CheckWX is a tool to help pilots better visualize weather data.  It is not intended as a substitute for an official pre-flight weather briefing.

13:45:10 UTC

KSLC TAF
Salt Lake City International Airport
Salt Lake City, Utah, USA
KSLC 061120Z 0612/0718 16006KT P6SM SKC FM061900 33007KT P6SM SKC FM070300 17008KT P6SM FEW120

Jul-6@
12:00 UTC

Jul-6 @ 12:00 UTC

Jul-6@
19:00 UTC

Jul-6 @ 19:00 UTC

TAF KSLC 061120Z 0612/0718 16006KT P6SM SKC

Expired

Wind
  • 160° at 6 KTS
Cloud Levels
  • Clear skies

Jul-6@
19:00 UTC

Jul-6 @ 19:00 UTC

Jul-7@
03:00 UTC

Jul-7 @ 03:00 UTC

FM061900 33007KT P6SM SKC

Expired

Wind
  • 330° at 7 KTS
Cloud Levels
  • Clear skies

Jul-7@
03:00 UTC

Jul-7 @ 03:00 UTC

Jul-7@
18:00 UTC

Jul-7 @ 18:00 UTC

FM070300 17008KT P6SM FEW120

From

From Standard forecast or significant change

Wind
  • 170° at 8 KTS
Cloud Levels
  • Few at 12,000' AGL